sensor_id;sensor_type;location;lat;lon;timestamp;temperature;humidity
40808;DHT22;26523;52.504;13.498;2023-11-21T00:01:50;7.70;99.90
40808;DHT22;26523;52.504;13.498;2023-11-21T00:04:15;7.70;99.90
40808;DHT22;26523;52.504;13.498;2023-11-21T00:06:42;7.70;99.90
40808;DHT22;26523;52.504;13.498;2023-11-21T00:09:14;7.50;99.90
40808;DHT22;26523;52.504;13.498;2023-11-21T00:11:48;7.50;99.90
40808;DHT22;26523;52.504;13.498;2023-11-21T00:14:15;7.60;99.90
40808;DHT22;26523;52.504;13.498;2023-11-21T00:16:41;7.50;99.90
40808;DHT22;26523;52.504;13.498;2023-11-21T00:19:10;7.60;99.90
40808;DHT22;26523;52.504;13.498;2023-11-21T00:21:39;7.50;99.90
40808;DHT22;26523;52.504;13.498;2023-11-21T00:24:05;7.50;99.90
40808;DHT22;26523;52.504;13.498;2023-11-21T00:26:31;7.40;99.90
40808;DHT22;26523;52.504;13.498;2023-11-21T00:29:02;7.40;99.90
40808;DHT22;26523;52.504;13.498;2023-11-21T00:31:34;7.40;99.90
40808;DHT22;26523;52.504;13.498;2023-11-21T00:34:04;7.30;99.90
40808;DHT22;26523;52.504;13.498;2023-11-21T00:36:31;7.30;99.90
40808;DHT22;26523;52.504;13.498;2023-11-21T00:39:02;7.30;99.90
40808;DHT22;26523;52.504;13.498;2023-11-21T00:41:31;7.20;99.90
40808;DHT22;26523;52.504;13.498;2023-11-21T00:43:58;7.20;99.90
40808;DHT22;26523;52.504;13.498;2023-11-21T00:46:35;7.20;99.90
40808;DHT22;26523;52.504;13.498;2023-11-21T00:49:08;7.20;99.90
40808;DHT22;26523;52.504;13.498;2023-11-21T00:51:35;7.20;99.90
40808;DHT22;26523;52.504;13.498;2023-11-21T00:54:04;7.00;99.90
40808;DHT22;26523;52.504;13.498;2023-11-21T00:56:32;7.00;99.90
40808;DHT22;26523;52.504;13.498;2023-11-21T00:58:57;7.10;99.90
40808;DHT22;26523;52.504;13.498;2023-11-21T01:01:23;7.10;99.90
40808;DHT22;26523;52.504;13.498;2023-11-21T01:03:51;7.00;99.90
40808;DHT22;26523;52.504;13.498;2023-11-21T01:06:17;7.10;99.90
40808;DHT22;26523;52.504;13.498;2023-11-21T01:08:44;6.90;99.90
40808;DHT22;26523;52.504;13.498;2023-11-21T01:11:12;6.80;99.90
40808;DHT22;26523;52.504;13.498;2023-11-21T01:13:41;6.80;99.90
40808;DHT22;26523;52.504;13.498;2023-11-21T01:16:08;6.80;99.90
40808;DHT22;26523;52.504;13.498;2023-11-21T01:18:34;6.60;99.90
40808;DHT22;26523;52.504;13.498;2023-11-21T01:21:01;6.60;99.90
40808;DHT22;26523;52.504;13.498;2023-11-21T01:23:39;6.50;99.90
40808;DHT22;26523;52.504;13.498;2023-11-21T01:26:05;6.50;99.90
40808;DHT22;26523;52.504;13.498;2023-11-21T01:28:34;6.50;99.90
40808;DHT22;26523;52.504;13.498;2023-11-21T01:31:00;6.50;99.90
40808;DHT22;26523;52.504;13.498;2023-11-21T01:33:26;6.60;99.90
40808;DHT22;26523;52.504;13.498;2023-11-21T01:35:52;6.50;99.90
40808;DHT22;26523;52.504;13.498;2023-11-21T01:38:21;6.50;99.90
40808;DHT22;26523;52.504;13.498;2023-11-21T01:40:49;6.40;99.90
40808;DHT22;26523;52.504;13.498;2023-11-21T01:43:14;6.40;99.90
40808;DHT22;26523;52.504;13.498;2023-11-21T01:45:43;6.20;99.90
40808;DHT22;26523;52.504;13.498;2023-11-21T01:48:10;6.20;99.90
40808;DHT22;26523;52.504;13.498;2023-11-21T01:50:38;6.10;99.90
40808;DHT22;26523;52.504;13.498;2023-11-21T01:53:06;6.40;99.90
40808;DHT22;26523;52.504;13.498;2023-11-21T01:55:33;6.20;99.90
40808;DHT22;26523;52.504;13.498;2023-11-21T01:58:00;6.10;99.90
40808;DHT22;26523;52.504;13.498;2023-11-21T02:00:27;6.00;99.90
40808;DHT22;26523;52.504;13.498;2023-11-21T02:02:53;6.00;99.90
40808;DHT22;26523;52.504;13.498;2023-11-21T02:05:19;6.00;99.90
40808;DHT22;26523;52.504;13.498;2023-11-21T02:07:50;6.00;99.90
40808;DHT22;26523;52.504;13.498;2023-11-21T02:10:18;6.10;99.90
40808;DHT22;26523;52.504;13.498;2023-11-21T02:12:48;6.10;99.90
40808;DHT22;26523;52.504;13.498;2023-11-21T02:15:18;6.10;99.90
40808;DHT22;26523;52.504;13.498;2023-11-21T02:17:47;6.10;99.90
40808;DHT22;26523;52.504;13.498;2023-11-21T02:20:17;6.10;99.90
40808;DHT22;26523;52.504;13.498;2023-11-21T02:22:56;6.10;99.90
40808;DHT22;26523;52.504;13.498;2023-11-21T02:25:31;6.00;99.90
40808;DHT22;26523;52.504;13.498;2023-11-21T02:28:00;6.00;99.90
40808;DHT22;26523;52.504;13.498;2023-11-21T02:30:29;6.00;99.90
40808;DHT22;26523;52.504;13.498;2023-11-21T02:32:58;6.00;99.90
40808;DHT22;26523;52.504;13.498;2023-11-21T02:35:35;6.00;99.90
40808;DHT22;26523;52.504;13.498;2023-11-21T02:38:01;5.90;99.90
40808;DHT22;26523;52.504;13.498;2023-11-21T02:40:30;5.90;99.90
40808;DHT22;26523;52.504;13.498;2023-11-21T02:42:56;5.90;99.90
40808;DHT22;26523;52.504;13.498;2023-11-21T02:45:27;5.90;99.90
40808;DHT22;26523;52.504;13.498;2023-11-21T02:47:57;5.90;99.90
40808;DHT22;26523;52.504;13.498;2023-11-21T02:50:24;5.80;99.90
40808;DHT22;26523;52.504;13.498;2023-11-21T02:52:51;5.80;99.90
40808;DHT22;26523;52.504;13.498;2023-11-21T02:55:17;5.70;99.90
40808;DHT22;26523;52.504;13.498;2023-11-21T02:57:43;5.70;99.90
40808;DHT22;26523;52.504;13.498;2023-11-21T03:00:09;5.70;99.90
40808;DHT22;26523;52.504;13.498;2023-11-21T03:02:41;5.70;99.90
40808;DHT22;26523;52.504;13.498;2023-11-21T03:05:09;5.70;99.90
40808;DHT22;26523;52.504;13.498;2023-11-21T03:07:38;5.70;99.90
40808;DHT22;26523;52.504;13.498;2023-11-21T03:10:04;5.60;99.90
40808;DHT22;26523;52.504;13.498;2023-11-21T03:12:30;5.60;99.90
40808;DHT22;26523;52.504;13.498;2023-11-21T03:14:56;5.50;99.90
40808;DHT22;26523;52.504;13.498;2023-11-21T03:17:22;5.60;99.90
40808;DHT22;26523;52.504;13.498;2023-11-21T03:19:48;5.60;99.90
40808;DHT22;26523;52.504;13.498;2023-11-21T03:22:13;5.50;99.90
40808;DHT22;26523;52.504;13.498;2023-11-21T03:24:39;5.50;99.90
40808;DHT22;26523;52.504;13.498;2023-11-21T03:27:05;5.50;99.90
40808;DHT22;26523;52.504;13.498;2023-11-21T03:29:31;5.60;99.90
40808;DHT22;26523;52.504;13.498;2023-11-21T03:31:58;5.60;99.90
40808;DHT22;26523;52.504;13.498;2023-11-21T03:34:27;5.50;99.90
40808;DHT22;26523;52.504;13.498;2023-11-21T03:36:52;5.50;99.90
40808;DHT22;26523;52.504;13.498;2023-11-21T03:39:21;5.50;99.90
40808;DHT22;26523;52.504;13.498;2023-11-21T03:41:47;5.60;99.90
40808;DHT22;26523;52.504;13.498;2023-11-21T03:44:14;5.60;99.90
40808;DHT22;26523;52.504;13.498;2023-11-21T03:46:40;5.60;99.90
40808;DHT22;26523;52.504;13.498;2023-11-21T03:49:09;5.60;99.90
40808;DHT22;26523;52.504;13.498;2023-11-21T03:51:36;5.50;99.90
40808;DHT22;26523;52.504;13.498;2023-11-21T03:54:03;5.60;99.90
40808;DHT22;26523;52.504;13.498;2023-11-21T03:56:32;5.60;99.90
40808;DHT22;26523;52.504;13.498;2023-11-21T03:59:01;5.60;99.90
40808;DHT22;26523;52.504;13.498;2023-11-21T04:01:28;5.50;99.90
40808;DHT22;26523;52.504;13.498;2023-11-21T04:03:55;5.50;99.90
40808;DHT22;26523;52.504;13.498;2023-11-21T04:06:23;5.50;99.90
40808;DHT22;26523;52.504;13.498;2023-11-21T04:08:51;5.40;99.90
40808;DHT22;26523;52.504;13.498;2023-11-21T04:11:18;5.40;99.90
40808;DHT22;26523;52.504;13.498;2023-11-21T04:13:44;5.50;99.90
40808;DHT22;26523;52.504;13.498;2023-11-21T04:16:11;5.40;99.90
40808;DHT22;26523;52.504;13.498;2023-11-21T04:18:40;5.30;99.90
40808;DHT22;26523;52.504;13.498;2023-11-21T04:21:07;5.30;99.90
40808;DHT22;26523;52.504;13.498;2023-11-21T04:23:33;5.40;99.90
40808;DHT22;26523;52.504;13.498;2023-11-21T04:26:00;5.30;99.90
40808;DHT22;26523;52.504;13.498;2023-11-21T04:28:28;5.30;99.90
40808;DHT22;26523;52.504;13.498;2023-11-21T04:30:54;5.30;99.90
40808;DHT22;26523;52.504;13.498;2023-11-21T04:33:20;5.40;99.90
40808;DHT22;26523;52.504;13.498;2023-11-21T04:35:48;5.30;99.90
40808;DHT22;26523;52.504;13.498;2023-11-21T04:38:16;5.20;99.90
40808;DHT22;26523;52.504;13.498;2023-11-21T04:40:44;5.20;99.90
40808;DHT22;26523;52.504;13.498;2023-11-21T04:43:11;5.30;99.90
40808;DHT22;26523;52.504;13.498;2023-11-21T04:45:36;5.20;99.90
40808;DHT22;26523;52.504;13.498;2023-11-21T04:48:02;5.20;99.90
40808;DHT22;26523;52.504;13.498;2023-11-21T04:50:28;5.10;99.90
40808;DHT22;26523;52.504;13.498;2023-11-21T04:52:54;5.30;99.90
40808;DHT22;26523;52.504;13.498;2023-11-21T04:55:20;5.30;99.90
40808;DHT22;26523;52.504;13.498;2023-11-21T04:57:46;5.30;99.90
40808;DHT22;26523;52.504;13.498;2023-11-21T05:00:12;5.30;99.90
40808;DHT22;26523;52.504;13.498;2023-11-21T05:02:40;5.40;99.90
40808;DHT22;26523;52.504;13.498;2023-11-21T05:05:07;5.30;99.90
40808;DHT22;26523;52.504;13.498;2023-11-21T05:07:36;5.20;99.90
40808;DHT22;26523;52.504;13.498;2023-11-21T05:10:03;5.20;99.90
40808;DHT22;26523;52.504;13.498;2023-11-21T05:12:31;5.20;99.90
40808;DHT22;26523;52.504;13.498;2023-11-21T05:15:04;5.30;99.90
40808;DHT22;26523;52.504;13.498;2023-11-21T05:17:33;5.30;99.90
40808;DHT22;26523;52.504;13.498;2023-11-21T05:20:00;5.30;99.90
40808;DHT22;26523;52.504;13.498;2023-11-21T05:22:30;5.30;99.90
40808;DHT22;26523;52.504;13.498;2023-11-21T05:24:57;5.30;99.90
40808;DHT22;26523;52.504;13.498;2023-11-21T05:27:24;5.20;99.90
40808;DHT22;26523;52.504;13.498;2023-11-21T05:29:51;5.20;99.90
40808;DHT22;26523;52.504;13.498;2023-11-21T05:32:19;5.20;99.90
40808;DHT22;26523;52.504;13.498;2023-11-21T05:34:45;5.10;99.90
40808;DHT22;26523;52.504;13.498;2023-11-21T05:37:12;5.10;99.90
40808;DHT22;26523;52.504;13.498;2023-11-21T05:39:38;5.10;99.90
40808;DHT22;26523;52.504;13.498;2023-11-21T05:42:05;5.10;99.90
40808;DHT22;26523;52.504;13.498;2023-11-21T05:44:31;5.10;99.90
40808;DHT22;26523;52.504;13.498;2023-11-21T05:46:57;5.20;99.90
40808;DHT22;26523;52.504;13.498;2023-11-21T05:49:25;5.20;99.90
40808;DHT22;26523;52.504;13.498;2023-11-21T05:51:54;5.30;99.90
40808;DHT22;26523;52.504;13.498;2023-11-21T05:54:23;5.20;99.90
40808;DHT22;26523;52.504;13.498;2023-11-21T05:56:49;5.30;99.90
40808;DHT22;26523;52.504;13.498;2023-11-21T05:59:15;5.30;99.90
40808;DHT22;26523;52.504;13.498;2023-11-21T06:01:41;5.40;99.90
40808;DHT22;26523;52.504;13.498;2023-11-21T06:04:07;5.30;99.90
40808;DHT22;26523;52.504;13.498;2023-11-21T06:06:36;5.30;99.90
40808;DHT22;26523;52.504;13.498;2023-11-21T06:09:04;5.20;99.90
40808;DHT22;26523;52.504;13.498;2023-11-21T06:11:31;5.30;99.90
40808;DHT22;26523;52.504;13.498;2023-11-21T06:13:57;5.30;99.90
40808;DHT22;26523;52.504;13.498;2023-11-21T06:16:24;5.10;99.90
40808;DHT22;26523;52.504;13.498;2023-11-21T06:18:51;5.10;99.90
40808;DHT22;26523;52.504;13.498;2023-11-21T06:21:18;5.10;99.90
40808;DHT22;26523;52.504;13.498;2023-11-21T06:23:43;5.10;99.90
40808;DHT22;26523;52.504;13.498;2023-11-21T06:26:10;5.00;99.90
40808;DHT22;26523;52.504;13.498;2023-11-21T06:28:35;5.10;99.90
40808;DHT22;26523;52.504;13.498;2023-11-21T06:31:22;5.10;99.90
40808;DHT22;26523;52.504;13.498;2023-11-21T06:33:48;5.20;99.90
40808;DHT22;26523;52.504;13.498;2023-11-21T06:36:16;5.10;99.90
40808;DHT22;26523;52.504;13.498;2023-11-21T06:38:44;5.10;99.90
40808;DHT22;26523;52.504;13.498;2023-11-21T06:41:13;5.00;99.90
40808;DHT22;26523;52.504;13.498;2023-11-21T06:43:40;5.00;99.90
40808;DHT22;26523;52.504;13.498;2023-11-21T06:46:07;5.00;99.90
40808;DHT22;26523;52.504;13.498;2023-11-21T06:48:37;5.10;99.90
40808;DHT22;26523;52.504;13.498;2023-11-21T06:51:04;5.00;99.90
40808;DHT22;26523;52.504;13.498;2023-11-21T06:53:38;5.10;99.90
40808;DHT22;26523;52.504;13.498;2023-11-21T06:56:22;5.10;99.90
40808;DHT22;26523;52.504;13.498;2023-11-21T06:58:48;5.10;99.90
40808;DHT22;26523;52.504;13.498;2023-11-21T07:01:15;4.90;99.90
40808;DHT22;26523;52.504;13.498;2023-11-21T07:03:41;4.90;99.90
40808;DHT22;26523;52.504;13.498;2023-11-21T07:06:07;5.00;99.90
40808;DHT22;26523;52.504;13.498;2023-11-21T07:08:34;5.00;99.90
40808;DHT22;26523;52.504;13.498;2023-11-21T07:11:00;5.00;99.90
40808;DHT22;26523;52.504;13.498;2023-11-21T07:13:33;5.10;99.90
40808;DHT22;26523;52.504;13.498;2023-11-21T07:16:02;5.10;99.90
40808;DHT22;26523;52.504;13.498;2023-11-21T07:18:29;5.00;99.90
40808;DHT22;26523;52.504;13.498;2023-11-21T07:20:55;5.00;99.90
40808;DHT22;26523;52.504;13.498;2023-11-21T07:23:21;5.00;99.90
40808;DHT22;26523;52.504;13.498;2023-11-21T07:25:48;5.10;99.90
40808;DHT22;26523;52.504;13.498;2023-11-21T07:28:13;4.90;99.90
40808;DHT22;26523;52.504;13.498;2023-11-21T07:30:42;4.90;99.90
40808;DHT22;26523;52.504;13.498;2023-11-21T07:33:09;5.00;99.90
40808;DHT22;26523;52.504;13.498;2023-11-21T07:35:35;4.90;99.90
40808;DHT22;26523;52.504;13.498;2023-11-21T07:38:04;4.80;99.90
40808;DHT22;26523;52.504;13.498;2023-11-21T07:40:30;4.90;99.90
40808;DHT22;26523;52.504;13.498;2023-11-21T07:43:00;4.90;99.90
40808;DHT22;26523;52.504;13.498;2023-11-21T07:45:27;4.90;99.90
40808;DHT22;26523;52.504;13.498;2023-11-21T07:47:54;4.80;99.90
40808;DHT22;26523;52.504;13.498;2023-11-21T07:50:21;4.80;99.90
40808;DHT22;26523;52.504;13.498;2023-11-21T07:52:52;4.90;99.90
40808;DHT22;26523;52.504;13.498;2023-11-21T07:55:20;4.80;99.90
40808;DHT22;26523;52.504;13.498;2023-11-21T07:57:47;4.80;99.90
40808;DHT22;26523;52.504;13.498;2023-11-21T08:00:14;4.80;99.90
40808;DHT22;26523;52.504;13.498;2023-11-21T08:02:41;4.80;99.90
40808;DHT22;26523;52.504;13.498;2023-11-21T08:05:08;4.90;99.90
40808;DHT22;26523;52.504;13.498;2023-11-21T08:07:34;5.00;99.90
40808;DHT22;26523;52.504;13.498;2023-11-21T08:10:01;5.00;99.90
40808;DHT22;26523;52.504;13.498;2023-11-21T08:12:27;5.00;99.90
40808;DHT22;26523;52.504;13.498;2023-11-21T08:14:54;5.00;99.90
40808;DHT22;26523;52.504;13.498;2023-11-21T08:17:20;5.10;99.90
40808;DHT22;26523;52.504;13.498;2023-11-21T08:19:47;4.90;99.90
40808;DHT22;26523;52.504;13.498;2023-11-21T08:22:18;4.90;99.90
40808;DHT22;26523;52.504;13.498;2023-11-21T08:24:44;4.80;99.90
40808;DHT22;26523;52.504;13.498;2023-11-21T08:27:10;4.80;99.90
40808;DHT22;26523;52.504;13.498;2023-11-21T08:29:36;4.90;99.90
40808;DHT22;26523;52.504;13.498;2023-11-21T08:32:03;4.90;99.90
40808;DHT22;26523;52.504;13.498;2023-11-21T08:34:31;5.00;99.90
40808;DHT22;26523;52.504;13.498;2023-11-21T08:36:57;5.00;99.90
40808;DHT22;26523;52.504;13.498;2023-11-21T08:39:23;4.90;99.90
40808;DHT22;26523;52.504;13.498;2023-11-21T08:41:52;4.90;99.90
40808;DHT22;26523;52.504;13.498;2023-11-21T08:44:18;4.90;99.90
40808;DHT22;26523;52.504;13.498;2023-11-21T08:46:44;4.90;99.90
40808;DHT22;26523;52.504;13.498;2023-11-21T08:49:11;4.90;99.90
40808;DHT22;26523;52.504;13.498;2023-11-21T08:51:39;4.80;99.90
40808;DHT22;26523;52.504;13.498;2023-11-21T08:54:06;4.80;99.90
40808;DHT22;26523;52.504;13.498;2023-11-21T08:56:34;4.80;99.90
40808;DHT22;26523;52.504;13.498;2023-11-21T08:59:00;4.70;99.90
40808;DHT22;26523;52.504;13.498;2023-11-21T09:01:32;4.70;99.90
40808;DHT22;26523;52.504;13.498;2023-11-21T09:03:59;4.70;99.90
40808;DHT22;26523;52.504;13.498;2023-11-21T09:06:25;4.70;99.90
40808;DHT22;26523;52.504;13.498;2023-11-21T09:08:55;4.70;99.90
40808;DHT22;26523;52.504;13.498;2023-11-21T09:11:20;4.80;99.90
40808;DHT22;26523;52.504;13.498;2023-11-21T09:13:46;4.70;99.90
40808;DHT22;26523;52.504;13.498;2023-11-21T09:16:14;4.80;99.90
40808;DHT22;26523;52.504;13.498;2023-11-21T09:18:41;4.90;99.90
40808;DHT22;26523;52.504;13.498;2023-11-21T09:21:07;4.80;99.90
40808;DHT22;26523;52.504;13.498;2023-11-21T09:23:35;4.80;99.90
40808;DHT22;26523;52.504;13.498;2023-11-21T09:26:01;4.80;99.90
40808;DHT22;26523;52.504;13.498;2023-11-21T09:28:30;4.80;99.90
40808;DHT22;26523;52.504;13.498;2023-11-21T09:30:57;4.80;99.90
40808;DHT22;26523;52.504;13.498;2023-11-21T09:33:23;4.70;99.90
40808;DHT22;26523;52.504;13.498;2023-11-21T09:35:52;4.70;99.90
40808;DHT22;26523;52.504;13.498;2023-11-21T09:38:19;4.80;99.90
40808;DHT22;26523;52.504;13.498;2023-11-21T09:40:51;4.90;99.90
40808;DHT22;26523;52.504;13.498;2023-11-21T09:43:20;5.00;99.90
40808;DHT22;26523;52.504;13.498;2023-11-21T09:45:52;5.00;99.90
40808;DHT22;26523;52.504;13.498;2023-11-21T09:48:24;5.10;99.90
40808;DHT22;26523;52.504;13.498;2023-11-21T09:50:51;5.00;99.90
40808;DHT22;26523;52.504;13.498;2023-11-21T09:53:20;4.90;99.90
40808;DHT22;26523;52.504;13.498;2023-11-21T09:55:51;4.90;99.90
40808;DHT22;26523;52.504;13.498;2023-11-21T09:58:18;4.90;99.90
40808;DHT22;26523;52.504;13.498;2023-11-21T10:00:49;5.00;99.90
40808;DHT22;26523;52.504;13.498;2023-11-21T10:03:15;5.00;99.90
40808;DHT22;26523;52.504;13.498;2023-11-21T10:05:45;5.00;99.90
40808;DHT22;26523;52.504;13.498;2023-11-21T10:08:13;5.10;99.90
40808;DHT22;26523;52.504;13.498;2023-11-21T10:10:45;5.10;99.90
40808;DHT22;26523;52.504;13.498;2023-11-21T10:13:14;4.90;99.90
40808;DHT22;26523;52.504;13.498;2023-11-21T10:15:44;4.90;99.90
40808;DHT22;26523;52.504;13.498;2023-11-21T10:18:16;4.90;99.90
40808;DHT22;26523;52.504;13.498;2023-11-21T10:20:41;4.90;99.90
40808;DHT22;26523;52.504;13.498;2023-11-21T10:23:10;4.90;99.90
40808;DHT22;26523;52.504;13.498;2023-11-21T10:25:37;4.90;99.90
40808;DHT22;26523;52.504;13.498;2023-11-21T10:28:03;4.90;99.90
40808;DHT22;26523;52.504;13.498;2023-11-21T10:30:37;4.80;99.90
40808;DHT22;26523;52.504;13.498;2023-11-21T10:33:04;4.90;99.90
40808;DHT22;26523;52.504;13.498;2023-11-21T10:35:45;4.90;99.90
40808;DHT22;26523;52.504;13.498;2023-11-21T10:38:18;4.90;99.90
40808;DHT22;26523;52.504;13.498;2023-11-21T10:40:44;5.00;99.90
40808;DHT22;26523;52.504;13.498;2023-11-21T10:43:14;5.00;99.90
40808;DHT22;26523;52.504;13.498;2023-11-21T10:45:47;5.10;99.90
40808;DHT22;26523;52.504;13.498;2023-11-21T10:48:16;5.10;99.90
40808;DHT22;26523;52.504;13.498;2023-11-21T10:50:45;5.10;99.90
40808;DHT22;26523;52.504;13.498;2023-11-21T10:53:12;5.10;99.90
40808;DHT22;26523;52.504;13.498;2023-11-21T10:55:38;5.00;99.90
40808;DHT22;26523;52.504;13.498;2023-11-21T10:58:05;5.00;99.90
40808;DHT22;26523;52.504;13.498;2023-11-21T11:00:33;4.90;99.90
40808;DHT22;26523;52.504;13.498;2023-11-21T11:03:00;4.90;99.90
40808;DHT22;26523;52.504;13.498;2023-11-21T11:05:28;4.90;99.90
40808;DHT22;26523;52.504;13.498;2023-11-21T11:08:04;4.90;99.90
40808;DHT22;26523;52.504;13.498;2023-11-21T11:10:30;4.90;99.90
40808;DHT22;26523;52.504;13.498;2023-11-21T11:12:57;4.90;99.90
40808;DHT22;26523;52.504;13.498;2023-11-21T11:15:24;4.80;99.90
40808;DHT22;26523;52.504;13.498;2023-11-21T11:17:52;4.80;99.90
40808;DHT22;26523;52.504;13.498;2023-11-21T11:20:33;4.80;99.90
40808;DHT22;26523;52.504;13.498;2023-11-21T11:26:12;4.60;99.90
40808;DHT22;26523;52.504;13.498;2023-11-21T11:31:51;4.70;99.90
40808;DHT22;26523;52.504;13.498;2023-11-21T11:37:26;4.50;99.90
40808;DHT22;26523;52.504;13.498;2023-11-21T11:39:56;4.30;99.90
40808;DHT22;26523;52.504;13.498;2023-11-21T11:43:01;4.40;99.90
40808;DHT22;26523;52.504;13.498;2023-11-21T11:45:56;4.20;99.90
40808;DHT22;26523;52.504;13.498;2023-11-21T11:48:23;4.20;99.90
40808;DHT22;26523;52.504;13.498;2023-11-21T11:51:12;4.30;99.90
40808;DHT22;26523;52.504;13.498;2023-11-21T11:53:47;4.30;99.90
40808;DHT22;26523;52.504;13.498;2023-11-21T11:56:29;4.40;99.90
40808;DHT22;26523;52.504;13.498;2023-11-21T11:59:03;4.50;99.90
40808;DHT22;26523;52.504;13.498;2023-11-21T12:01:30;4.40;99.90
40808;DHT22;26523;52.504;13.498;2023-11-21T12:06:45;4.50;99.90
40808;DHT22;26523;52.504;13.498;2023-11-21T12:09:20;4.40;99.90
40808;DHT22;26523;52.504;13.498;2023-11-21T12:11:47;4.40;99.90
40808;DHT22;26523;52.504;13.498;2023-11-21T12:14:15;4.40;99.90
40808;DHT22;26523;52.504;13.498;2023-11-21T12:16:41;4.40;99.90
40808;DHT22;26523;52.504;13.498;2023-11-21T12:19:09;4.40;99.90
40808;DHT22;26523;52.504;13.498;2023-11-21T12:21:36;4.30;99.90
40808;DHT22;26523;52.504;13.498;2023-11-21T12:24:02;4.30;99.90
40808;DHT22;26523;52.504;13.498;2023-11-21T12:26:28;4.50;99.90
40808;DHT22;26523;52.504;13.498;2023-11-21T12:28:54;4.50;99.90
40808;DHT22;26523;52.504;13.498;2023-11-21T12:31:21;4.30;99.90
40808;DHT22;26523;52.504;13.498;2023-11-21T12:33:48;4.20;99.90
40808;DHT22;26523;52.504;13.498;2023-11-21T12:36:14;4.20;99.90
40808;DHT22;26523;52.504;13.498;2023-11-21T12:38:42;4.20;99.90
40808;DHT22;26523;52.504;13.498;2023-11-21T12:41:11;4.10;99.90
40808;DHT22;26523;52.504;13.498;2023-11-21T12:43:38;4.10;99.90
40808;DHT22;26523;52.504;13.498;2023-11-21T12:46:11;4.20;99.90
40808;DHT22;26523;52.504;13.498;2023-11-21T12:48:37;4.30;99.90
40808;DHT22;26523;52.504;13.498;2023-11-21T12:51:10;4.30;99.90
40808;DHT22;26523;52.504;13.498;2023-11-21T12:53:38;4.40;99.90
40808;DHT22;26523;52.504;13.498;2023-11-21T12:56:09;4.50;99.90
40808;DHT22;26523;52.504;13.498;2023-11-21T12:58:39;4.50;99.90
40808;DHT22;26523;52.504;13.498;2023-11-21T13:01:07;4.60;99.90
40808;DHT22;26523;52.504;13.498;2023-11-21T13:03:38;4.50;99.90
40808;DHT22;26523;52.504;13.498;2023-11-21T13:06:05;4.40;99.90
40808;DHT22;26523;52.504;13.498;2023-11-21T13:08:31;4.40;99.90
40808;DHT22;26523;52.504;13.498;2023-11-21T13:10:58;4.40;99.90
40808;DHT22;26523;52.504;13.498;2023-11-21T13:13:25;4.30;99.90
40808;DHT22;26523;52.504;13.498;2023-11-21T13:15:55;4.20;99.90
40808;DHT22;26523;52.504;13.498;2023-11-21T13:18:27;4.00;99.90
40808;DHT22;26523;52.504;13.498;2023-11-21T13:20:56;4.00;99.90
40808;DHT22;26523;52.504;13.498;2023-11-21T13:23:23;3.90;99.90
40808;DHT22;26523;52.504;13.498;2023-11-21T13:25:49;3.90;99.90
40808;DHT22;26523;52.504;13.498;2023-11-21T13:28:16;3.90;99.90
40808;DHT22;26523;52.504;13.498;2023-11-21T13:30:44;3.80;99.90
40808;DHT22;26523;52.504;13.498;2023-11-21T13:33:10;3.90;99.90
40808;DHT22;26523;52.504;13.498;2023-11-21T13:35:43;4.00;99.90
40808;DHT22;26523;52.504;13.498;2023-11-21T13:38:15;4.00;99.90
40808;DHT22;26523;52.504;13.498;2023-11-21T13:40:53;3.90;99.90
40808;DHT22;26523;52.504;13.498;2023-11-21T13:43:21;3.90;99.90
40808;DHT22;26523;52.504;13.498;2023-11-21T13:45:50;4.00;99.90
40808;DHT22;26523;52.504;13.498;2023-11-21T13:48:21;3.90;99.90
40808;DHT22;26523;52.504;13.498;2023-11-21T13:50:53;4.00;99.90
40808;DHT22;26523;52.504;13.498;2023-11-21T13:53:24;3.90;99.90
40808;DHT22;26523;52.504;13.498;2023-11-21T13:55:51;3.80;99.90
40808;DHT22;26523;52.504;13.498;2023-11-21T13:58:20;3.70;99.90
40808;DHT22;26523;52.504;13.498;2023-11-21T14:00:55;3.80;99.90
40808;DHT22;26523;52.504;13.498;2023-11-21T14:03:26;3.60;99.90
40808;DHT22;26523;52.504;13.498;2023-11-21T14:06:05;3.50;99.90
40808;DHT22;26523;52.504;13.498;2023-11-21T14:08:40;3.40;99.90
40808;DHT22;26523;52.504;13.498;2023-11-21T14:11:07;3.40;99.90
40808;DHT22;26523;52.504;13.498;2023-11-21T14:13:34;3.30;99.90
40808;DHT22;26523;52.504;13.498;2023-11-21T14:16:00;3.30;99.90
40808;DHT22;26523;52.504;13.498;2023-11-21T14:18:28;3.20;99.90
40808;DHT22;26523;52.504;13.498;2023-11-21T14:21:06;3.40;99.90
40808;DHT22;26523;52.504;13.498;2023-11-21T14:23:33;3.30;99.90
40808;DHT22;26523;52.504;13.498;2023-11-21T14:26:02;3.30;99.90
40808;DHT22;26523;52.504;13.498;2023-11-21T14:28:28;3.30;99.90
40808;DHT22;26523;52.504;13.498;2023-11-21T14:30:54;3.30;99.90
40808;DHT22;26523;52.504;13.498;2023-11-21T14:33:19;3.30;99.90
40808;DHT22;26523;52.504;13.498;2023-11-21T14:35:45;3.30;99.90
40808;DHT22;26523;52.504;13.498;2023-11-21T14:38:12;3.10;99.90
40808;DHT22;26523;52.504;13.498;2023-11-21T14:40:39;3.00;99.90
40808;DHT22;26523;52.504;13.498;2023-11-21T14:43:06;3.00;99.90
40808;DHT22;26523;52.504;13.498;2023-11-21T14:45:33;3.10;99.90
40808;DHT22;26523;52.504;13.498;2023-11-21T14:47:59;3.00;99.90
40808;DHT22;26523;52.504;13.498;2023-11-21T14:50:42;2.90;99.90
40808;DHT22;26523;52.504;13.498;2023-11-21T14:53:11;2.90;99.90
40808;DHT22;26523;52.504;13.498;2023-11-21T14:55:39;2.90;99.90
40808;DHT22;26523;52.504;13.498;2023-11-21T14:58:14;2.90;99.90
40808;DHT22;26523;52.504;13.498;2023-11-21T15:00:45;2.80;99.90
40808;DHT22;26523;52.504;13.498;2023-11-21T15:03:11;2.80;99.90
40808;DHT22;26523;52.504;13.498;2023-11-21T15:06:01;2.80;99.90
40808;DHT22;26523;52.504;13.498;2023-11-21T15:08:50;2.80;99.90
40808;DHT22;26523;52.504;13.498;2023-11-21T15:11:21;2.80;99.90
40808;DHT22;26523;52.504;13.498;2023-11-21T15:13:53;2.70;99.90
40808;DHT22;26523;52.504;13.498;2023-11-21T15:16:20;2.80;99.90
40808;DHT22;26523;52.504;13.498;2023-11-21T15:18:45;2.70;99.90
40808;DHT22;26523;52.504;13.498;2023-11-21T15:21:11;2.80;99.90
40808;DHT22;26523;52.504;13.498;2023-11-21T15:23:39;2.80;99.90
40808;DHT22;26523;52.504;13.498;2023-11-21T15:26:07;2.70;99.90
40808;DHT22;26523;52.504;13.498;2023-11-21T15:28:39;2.70;99.90
40808;DHT22;26523;52.504;13.498;2023-11-21T15:31:04;2.80;99.90
40808;DHT22;26523;52.504;13.498;2023-11-21T15:33:30;2.70;99.90
40808;DHT22;26523;52.504;13.498;2023-11-21T15:35:56;2.70;99.90
40808;DHT22;26523;52.504;13.498;2023-11-21T15:38:24;2.60;99.90
40808;DHT22;26523;52.504;13.498;2023-11-21T15:40:49;2.60;99.90
40808;DHT22;26523;52.504;13.498;2023-11-21T15:43:16;2.60;99.90
40808;DHT22;26523;52.504;13.498;2023-11-21T15:45:41;2.60;99.90
40808;DHT22;26523;52.504;13.498;2023-11-21T15:48:07;2.50;99.90
40808;DHT22;26523;52.504;13.498;2023-11-21T15:50:34;2.50;99.90